sensor_id;sensor_type;location;lat;lon;timestamp;P1;durP1;ratioP1;P2;durP2;ratioP2
29812;SDS011;16707;48.106;11.548;2022-12-18T00:02:26;44.72;;;20.85;;
29812;SDS011;16707;48.106;11.548;2022-12-18T00:04:53;43.78;;;19.95;;
29812;SDS011;16707;48.106;11.548;2022-12-18T00:07:20;40.63;;;18.80;;
29812;SDS011;16707;48.106;11.548;2022-12-18T00:09:47;49.10;;;20.35;;
29812;SDS011;16707;48.106;11.548;2022-12-18T00:12:14;47.45;;;20.25;;
29812;SDS011;16707;48.106;11.548;2022-12-18T00:14:41;45.22;;;21.40;;
29812;SDS011;16707;48.106;11.548;2022-12-18T00:17:09;43.83;;;19.73;;
29812;SDS011;16707;48.106;11.548;2022-12-18T00:19:36;43.45;;;20.50;;
29812;SDS011;16707;48.106;11.548;2022-12-18T00:22:03;41.67;;;20.30;;
29812;SDS011;16707;48.106;11.548;2022-12-18T00:24:33;44.05;;;20.60;;
29812;SDS011;16707;48.106;11.548;2022-12-18T00:27:00;40.15;;;19.02;;
29812;SDS011;16707;48.106;11.548;2022-12-18T00:29:27;43.38;;;18.52;;
29812;SDS011;16707;48.106;11.548;2022-12-18T00:31:54;45.25;;;20.05;;
29812;SDS011;16707;48.106;11.548;2022-12-18T00:34:22;37.42;;;17.73;;
29812;SDS011;16707;48.106;11.548;2022-12-18T00:36:49;39.03;;;19.48;;
29812;SDS011;16707;48.106;11.548;2022-12-18T00:39:17;39.45;;;19.65;;
29812;SDS011;16707;48.106;11.548;2022-12-18T00:41:44;33.88;;;17.05;;
29812;SDS011;16707;48.106;11.548;2022-12-18T00:44:34;42.45;;;19.15;;
29812;SDS011;16707;48.106;11.548;2022-12-18T00:47:05;34.35;;;17.52;;
29812;SDS011;16707;48.106;11.548;2022-12-18T00:49:33;39.85;;;20.33;;
29812;SDS011;16707;48.106;11.548;2022-12-18T00:52:00;39.38;;;19.50;;
29812;SDS011;16707;48.106;11.548;2022-12-18T00:54:29;36.83;;;18.17;;
29812;SDS011;16707;48.106;11.548;2022-12-18T00:57:02;37.75;;;18.33;;
29812;SDS011;16707;48.106;11.548;2022-12-18T00:59:34;34.60;;;18.33;;
29812;SDS011;16707;48.106;11.548;2022-12-18T01:02:02;38.88;;;18.45;;
29812;SDS011;16707;48.106;11.548;2022-12-18T01:04:32;38.70;;;18.98;;
29812;SDS011;16707;48.106;11.548;2022-12-18T01:07:05;43.38;;;19.20;;
29812;SDS011;16707;48.106;11.548;2022-12-18T01:09:32;35.28;;;17.95;;
29812;SDS011;16707;48.106;11.548;2022-12-18T01:12:03;39.35;;;18.33;;
29812;SDS011;16707;48.106;11.548;2022-12-18T01:14:30;41.13;;;18.23;;
29812;SDS011;16707;48.106;11.548;2022-12-18T01:16:57;38.50;;;18.02;;
29812;SDS011;16707;48.106;11.548;2022-12-18T01:19:24;41.65;;;18.40;;
29812;SDS011;16707;48.106;11.548;2022-12-18T01:22:00;36.15;;;17.75;;
29812;SDS011;16707;48.106;11.548;2022-12-18T01:24:28;37.95;;;17.80;;
29812;SDS011;16707;48.106;11.548;2022-12-18T01:26:54;34.45;;;17.52;;
29812;SDS011;16707;48.106;11.548;2022-12-18T01:29:24;39.40;;;17.90;;
29812;SDS011;16707;48.106;11.548;2022-12-18T01:31:54;33.45;;;16.85;;
29812;SDS011;16707;48.106;11.548;2022-12-18T01:34:22;39.53;;;17.45;;
29812;SDS011;16707;48.106;11.548;2022-12-18T01:36:54;36.40;;;16.40;;
29812;SDS011;16707;48.106;11.548;2022-12-18T01:39:22;36.08;;;17.05;;
29812;SDS011;16707;48.106;11.548;2022-12-18T01:41:49;34.83;;;16.30;;
29812;SDS011;16707;48.106;11.548;2022-12-18T01:47:35;38.80;;;17.65;;
29812;SDS011;16707;48.106;11.548;2022-12-18T01:50:09;33.80;;;15.95;;
29812;SDS011;16707;48.106;11.548;2022-12-18T01:52:41;37.65;;;17.38;;
29812;SDS011;16707;48.106;11.548;2022-12-18T01:55:16;38.28;;;17.92;;
29812;SDS011;16707;48.106;11.548;2022-12-18T01:57:45;33.70;;;17.08;;
29812;SDS011;16707;48.106;11.548;2022-12-18T02:00:14;39.10;;;17.85;;
29812;SDS011;16707;48.106;11.548;2022-12-18T02:02:43;38.03;;;17.90;;
29812;SDS011;16707;48.106;11.548;2022-12-18T02:05:14;39.33;;;17.83;;
29812;SDS011;16707;48.106;11.548;2022-12-18T02:07:46;37.60;;;19.05;;
29812;SDS011;16707;48.106;11.548;2022-12-18T02:10:27;41.40;;;18.08;;
29812;SDS011;16707;48.106;11.548;2022-12-18T02:13:09;43.72;;;20.30;;
29812;SDS011;16707;48.106;11.548;2022-12-18T02:15:46;48.88;;;22.77;;
29812;SDS011;16707;48.106;11.548;2022-12-18T02:18:23;52.00;;;22.73;;
29812;SDS011;16707;48.106;11.548;2022-12-18T02:20:55;46.85;;;22.00;;
29812;SDS011;16707;48.106;11.548;2022-12-18T02:23:33;48.58;;;21.75;;
29812;SDS011;16707;48.106;11.548;2022-12-18T02:26:12;47.00;;;23.05;;
29812;SDS011;16707;48.106;11.548;2022-12-18T02:28:43;53.88;;;22.70;;
29812;SDS011;16707;48.106;11.548;2022-12-18T02:31:14;51.72;;;22.48;;
29812;SDS011;16707;48.106;11.548;2022-12-18T02:33:45;45.53;;;20.27;;
29812;SDS011;16707;48.106;11.548;2022-12-18T02:36:13;48.17;;;18.88;;
29812;SDS011;16707;48.106;11.548;2022-12-18T02:38:46;45.85;;;21.25;;
29812;SDS011;16707;48.106;11.548;2022-12-18T02:41:15;49.53;;;21.50;;
29812;SDS011;16707;48.106;11.548;2022-12-18T02:43:46;51.55;;;21.33;;
29812;SDS011;16707;48.106;11.548;2022-12-18T02:46:25;50.95;;;22.05;;
29812;SDS011;16707;48.106;11.548;2022-12-18T02:49:01;52.97;;;22.00;;
29812;SDS011;16707;48.106;11.548;2022-12-18T02:51:33;44.70;;;20.05;;
29812;SDS011;16707;48.106;11.548;2022-12-18T02:54:14;48.83;;;22.00;;
29812;SDS011;16707;48.106;11.548;2022-12-18T02:56:51;47.42;;;20.67;;
29812;SDS011;16707;48.106;11.548;2022-12-18T02:59:24;48.35;;;22.42;;
29812;SDS011;16707;48.106;11.548;2022-12-18T03:01:59;42.88;;;19.85;;
29812;SDS011;16707;48.106;11.548;2022-12-18T03:04:34;48.70;;;22.13;;
29812;SDS011;16707;48.106;11.548;2022-12-18T03:07:08;50.10;;;20.02;;
29812;SDS011;16707;48.106;11.548;2022-12-18T03:09:38;46.78;;;20.80;;
29812;SDS011;16707;48.106;11.548;2022-12-18T03:12:14;45.53;;;21.90;;
29812;SDS011;16707;48.106;11.548;2022-12-18T03:14:55;46.50;;;22.13;;
29812;SDS011;16707;48.106;11.548;2022-12-18T03:17:26;44.78;;;19.65;;
29812;SDS011;16707;48.106;11.548;2022-12-18T03:19:56;45.50;;;21.17;;
29812;SDS011;16707;48.106;11.548;2022-12-18T03:22:29;42.22;;;20.42;;
29812;SDS011;16707;48.106;11.548;2022-12-18T03:24:58;41.75;;;20.33;;
29812;SDS011;16707;48.106;11.548;2022-12-18T03:27:30;42.78;;;19.73;;
29812;SDS011;16707;48.106;11.548;2022-12-18T03:30:00;44.97;;;21.02;;
29812;SDS011;16707;48.106;11.548;2022-12-18T03:32:33;47.75;;;19.98;;
29812;SDS011;16707;48.106;11.548;2022-12-18T03:35:06;44.25;;;21.65;;
29812;SDS011;16707;48.106;11.548;2022-12-18T03:37:36;46.30;;;20.73;;
29812;SDS011;16707;48.106;11.548;2022-12-18T03:40:04;42.03;;;20.52;;
29812;SDS011;16707;48.106;11.548;2022-12-18T03:42:35;47.72;;;21.38;;
29812;SDS011;16707;48.106;11.548;2022-12-18T03:45:09;41.28;;;20.00;;
29812;SDS011;16707;48.106;11.548;2022-12-18T03:47:41;48.45;;;20.10;;
29812;SDS011;16707;48.106;11.548;2022-12-18T03:50:16;47.50;;;21.40;;
29812;SDS011;16707;48.106;11.548;2022-12-18T03:52:48;44.78;;;20.52;;
29812;SDS011;16707;48.106;11.548;2022-12-18T03:55:19;45.92;;;20.42;;
29812;SDS011;16707;48.106;11.548;2022-12-18T03:57:50;49.72;;;21.42;;
29812;SDS011;16707;48.106;11.548;2022-12-18T04:00:19;47.42;;;19.38;;
29812;SDS011;16707;48.106;11.548;2022-12-18T04:02:48;44.00;;;22.13;;
29812;SDS011;16707;48.106;11.548;2022-12-18T04:05:17;43.55;;;20.23;;
29812;SDS011;16707;48.106;11.548;2022-12-18T04:07:47;47.95;;;20.65;;
29812;SDS011;16707;48.106;11.548;2022-12-18T04:10:21;41.55;;;19.98;;
29812;SDS011;16707;48.106;11.548;2022-12-18T04:12:51;48.75;;;20.00;;
29812;SDS011;16707;48.106;11.548;2022-12-18T04:15:23;43.50;;;20.15;;
29812;SDS011;16707;48.106;11.548;2022-12-18T04:17:50;40.95;;;20.08;;
29812;SDS011;16707;48.106;11.548;2022-12-18T04:20:21;46.45;;;19.88;;
29812;SDS011;16707;48.106;11.548;2022-12-18T04:22:48;41.10;;;20.33;;
29812;SDS011;16707;48.106;11.548;2022-12-18T04:25:18;43.25;;;19.38;;
29812;SDS011;16707;48.106;11.548;2022-12-18T04:27:45;45.35;;;20.75;;
29812;SDS011;16707;48.106;11.548;2022-12-18T04:30:13;47.42;;;20.98;;
29812;SDS011;16707;48.106;11.548;2022-12-18T04:32:40;44.08;;;20.50;;
29812;SDS011;16707;48.106;11.548;2022-12-18T04:35:07;48.85;;;21.30;;
29812;SDS011;16707;48.106;11.548;2022-12-18T04:37:35;47.03;;;21.23;;
29812;SDS011;16707;48.106;11.548;2022-12-18T04:40:03;42.00;;;20.73;;
29812;SDS011;16707;48.106;11.548;2022-12-18T04:42:34;44.45;;;21.80;;
29812;SDS011;16707;48.106;11.548;2022-12-18T04:45:01;44.47;;;21.20;;
29812;SDS011;16707;48.106;11.548;2022-12-18T04:47:29;42.58;;;19.95;;
29812;SDS011;16707;48.106;11.548;2022-12-18T04:49:57;41.50;;;20.45;;
29812;SDS011;16707;48.106;11.548;2022-12-18T04:52:24;43.63;;;20.13;;
29812;SDS011;16707;48.106;11.548;2022-12-18T04:55:02;47.53;;;19.58;;
29812;SDS011;16707;48.106;11.548;2022-12-18T04:57:30;45.65;;;19.38;;
29812;SDS011;16707;48.106;11.548;2022-12-18T05:00:00;47.08;;;21.33;;
29812;SDS011;16707;48.106;11.548;2022-12-18T05:02:37;50.78;;;20.52;;
29812;SDS011;16707;48.106;11.548;2022-12-18T05:05:04;40.28;;;17.75;;
29812;SDS011;16707;48.106;11.548;2022-12-18T05:07:38;43.35;;;20.50;;
29812;SDS011;16707;48.106;11.548;2022-12-18T05:10:08;40.87;;;20.87;;
29812;SDS011;16707;48.106;11.548;2022-12-18T05:12:37;42.22;;;18.77;;
29812;SDS011;16707;48.106;11.548;2022-12-18T05:15:23;41.33;;;18.48;;
29812;SDS011;16707;48.106;11.548;2022-12-18T05:17:52;39.83;;;18.83;;
29812;SDS011;16707;48.106;11.548;2022-12-18T05:20:19;44.53;;;20.98;;
29812;SDS011;16707;48.106;11.548;2022-12-18T05:22:46;39.50;;;19.65;;
29812;SDS011;16707;48.106;11.548;2022-12-18T05:25:13;43.10;;;19.83;;
29812;SDS011;16707;48.106;11.548;2022-12-18T05:27:43;40.22;;;19.52;;
29812;SDS011;16707;48.106;11.548;2022-12-18T05:30:11;38.70;;;18.55;;
29812;SDS011;16707;48.106;11.548;2022-12-18T05:32:39;36.92;;;17.55;;
29812;SDS011;16707;48.106;11.548;2022-12-18T05:35:08;44.97;;;19.10;;
29812;SDS011;16707;48.106;11.548;2022-12-18T05:37:36;36.83;;;17.70;;
29812;SDS011;16707;48.106;11.548;2022-12-18T05:40:04;39.40;;;17.98;;
29812;SDS011;16707;48.106;11.548;2022-12-18T05:42:31;33.08;;;17.55;;
29812;SDS011;16707;48.106;11.548;2022-12-18T05:44:58;38.95;;;17.13;;
29812;SDS011;16707;48.106;11.548;2022-12-18T05:47:29;39.22;;;17.75;;
29812;SDS011;16707;48.106;11.548;2022-12-18T05:49:59;35.28;;;17.90;;
29812;SDS011;16707;48.106;11.548;2022-12-18T05:52:27;38.75;;;17.52;;
29812;SDS011;16707;48.106;11.548;2022-12-18T05:54:54;39.03;;;18.98;;
29812;SDS011;16707;48.106;11.548;2022-12-18T05:57:21;40.53;;;17.83;;
29812;SDS011;16707;48.106;11.548;2022-12-18T05:59:48;38.42;;;16.52;;
29812;SDS011;16707;48.106;11.548;2022-12-18T06:02:15;36.78;;;15.90;;
29812;SDS011;16707;48.106;11.548;2022-12-18T06:04:42;35.97;;;15.57;;
29812;SDS011;16707;48.106;11.548;2022-12-18T06:07:09;32.75;;;16.42;;
29812;SDS011;16707;48.106;11.548;2022-12-18T06:09:37;31.17;;;15.40;;
29812;SDS011;16707;48.106;11.548;2022-12-18T06:12:05;38.35;;;17.08;;
29812;SDS011;16707;48.106;11.548;2022-12-18T06:14:32;34.70;;;16.77;;
29812;SDS011;16707;48.106;11.548;2022-12-18T06:16:59;34.22;;;18.38;;
29812;SDS011;16707;48.106;11.548;2022-12-18T06:19:29;33.67;;;16.10;;
29812;SDS011;16707;48.106;11.548;2022-12-18T06:21:55;37.00;;;16.40;;
29812;SDS011;16707;48.106;11.548;2022-12-18T06:24:23;36.85;;;17.38;;
29812;SDS011;16707;48.106;11.548;2022-12-18T06:26:52;35.03;;;18.48;;
29812;SDS011;16707;48.106;11.548;2022-12-18T06:29:20;38.22;;;16.65;;
29812;SDS011;16707;48.106;11.548;2022-12-18T06:31:46;30.85;;;15.10;;
29812;SDS011;16707;48.106;11.548;2022-12-18T06:34:13;34.72;;;16.15;;
29812;SDS011;16707;48.106;11.548;2022-12-18T06:36:40;35.17;;;16.75;;
29812;SDS011;16707;48.106;11.548;2022-12-18T06:39:07;36.50;;;18.50;;
29812;SDS011;16707;48.106;11.548;2022-12-18T06:41:34;33.38;;;18.40;;
29812;SDS011;16707;48.106;11.548;2022-12-18T06:44:03;33.67;;;15.30;;
29812;SDS011;16707;48.106;11.548;2022-12-18T06:46:33;33.75;;;16.92;;
29812;SDS011;16707;48.106;11.548;2022-12-18T06:49:00;36.40;;;16.65;;
29812;SDS011;16707;48.106;11.548;2022-12-18T06:51:27;36.20;;;17.55;;
29812;SDS011;16707;48.106;11.548;2022-12-18T06:53:54;37.55;;;15.73;;
29812;SDS011;16707;48.106;11.548;2022-12-18T06:56:21;35.67;;;17.33;;
29812;SDS011;16707;48.106;11.548;2022-12-18T06:58:48;32.72;;;17.38;;
29812;SDS011;16707;48.106;11.548;2022-12-18T07:01:19;36.38;;;16.65;;
29812;SDS011;16707;48.106;11.548;2022-12-18T07:03:46;43.47;;;18.42;;
29812;SDS011;16707;48.106;11.548;2022-12-18T07:06:13;39.47;;;18.35;;
29812;SDS011;16707;48.106;11.548;2022-12-18T07:08:41;38.92;;;17.85;;
29812;SDS011;16707;48.106;11.548;2022-12-18T07:11:08;35.95;;;17.30;;
29812;SDS011;16707;48.106;11.548;2022-12-18T07:13:35;36.53;;;15.77;;
29812;SDS011;16707;48.106;11.548;2022-12-18T07:16:03;38.20;;;18.55;;
29812;SDS011;16707;48.106;11.548;2022-12-18T07:18:33;37.92;;;17.52;;
29812;SDS011;16707;48.106;11.548;2022-12-18T07:21:02;42.65;;;18.10;;
29812;SDS011;16707;48.106;11.548;2022-12-18T07:23:29;38.47;;;18.20;;
29812;SDS011;16707;48.106;11.548;2022-12-18T07:26:00;40.45;;;18.63;;
29812;SDS011;16707;48.106;11.548;2022-12-18T07:28:28;41.00;;;17.33;;
29812;SDS011;16707;48.106;11.548;2022-12-18T07:30:58;38.83;;;19.77;;
29812;SDS011;16707;48.106;11.548;2022-12-18T07:33:25;34.65;;;17.13;;
29812;SDS011;16707;48.106;11.548;2022-12-18T07:35:56;36.85;;;17.45;;
29812;SDS011;16707;48.106;11.548;2022-12-18T07:38:25;38.78;;;18.67;;
29812;SDS011;16707;48.106;11.548;2022-12-18T07:40:52;38.33;;;18.67;;
29812;SDS011;16707;48.106;11.548;2022-12-18T07:43:18;34.50;;;16.45;;
29812;SDS011;16707;48.106;11.548;2022-12-18T07:45:48;34.85;;;16.23;;
29812;SDS011;16707;48.106;11.548;2022-12-18T07:48:15;36.33;;;16.60;;
29812;SDS011;16707;48.106;11.548;2022-12-18T07:50:42;35.65;;;17.02;;
29812;SDS011;16707;48.106;11.548;2022-12-18T07:53:10;32.97;;;16.33;;
29812;SDS011;16707;48.106;11.548;2022-12-18T07:55:37;35.97;;;16.95;;
29812;SDS011;16707;48.106;11.548;2022-12-18T07:58:04;34.20;;;16.35;;
29812;SDS011;16707;48.106;11.548;2022-12-18T08:00:31;40.60;;;18.02;;
29812;SDS011;16707;48.106;11.548;2022-12-18T08:02:58;34.58;;;17.08;;
29812;SDS011;16707;48.106;11.548;2022-12-18T08:05:25;41.10;;;19.02;;
29812;SDS011;16707;48.106;11.548;2022-12-18T08:07:54;36.22;;;17.73;;
29812;SDS011;16707;48.106;11.548;2022-12-18T08:10:24;38.97;;;16.65;;
29812;SDS011;16707;48.106;11.548;2022-12-18T08:12:52;34.03;;;16.17;;
29812;SDS011;16707;48.106;11.548;2022-12-18T08:15:20;31.95;;;15.93;;
29812;SDS011;16707;48.106;11.548;2022-12-18T08:17:48;38.17;;;17.42;;
29812;SDS011;16707;48.106;11.548;2022-12-18T08:20:15;39.92;;;17.27;;
29812;SDS011;16707;48.106;11.548;2022-12-18T08:22:43;26.52;;;14.73;;
29812;SDS011;16707;48.106;11.548;2022-12-18T08:25:10;34.22;;;16.08;;
29812;SDS011;16707;48.106;11.548;2022-12-18T08:27:38;32.30;;;15.80;;
29812;SDS011;16707;48.106;11.548;2022-12-18T08:30:09;33.67;;;15.32;;
29812;SDS011;16707;48.106;11.548;2022-12-18T08:32:37;31.63;;;15.18;;
29812;SDS011;16707;48.106;11.548;2022-12-18T08:35:05;30.70;;;14.15;;
29812;SDS011;16707;48.106;11.548;2022-12-18T08:37:32;35.67;;;15.48;;
29812;SDS011;16707;48.106;11.548;2022-12-18T08:39:59;33.50;;;14.75;;
29812;SDS011;16707;48.106;11.548;2022-12-18T08:42:27;30.88;;;15.38;;
29812;SDS011;16707;48.106;11.548;2022-12-18T08:45:09;31.05;;;14.60;;
29812;SDS011;16707;48.106;11.548;2022-12-18T08:47:36;27.27;;;13.43;;
29812;SDS011;16707;48.106;11.548;2022-12-18T08:50:03;33.10;;;14.45;;
29812;SDS011;16707;48.106;11.548;2022-12-18T08:52:31;31.05;;;15.60;;
29812;SDS011;16707;48.106;11.548;2022-12-18T08:54:58;29.45;;;13.57;;
29812;SDS011;16707;48.106;11.548;2022-12-18T08:57:25;27.00;;;13.48;;
29812;SDS011;16707;48.106;11.548;2022-12-18T08:59:52;27.00;;;13.27;;
29812;SDS011;16707;48.106;11.548;2022-12-18T09:02:20;32.53;;;15.05;;
29812;SDS011;16707;48.106;11.548;2022-12-18T09:04:47;27.65;;;12.57;;
29812;SDS011;16707;48.106;11.548;2022-12-18T09:07:14;33.55;;;14.05;;
29812;SDS011;16707;48.106;11.548;2022-12-18T09:09:41;31.65;;;14.68;;
29812;SDS011;16707;48.106;11.548;2022-12-18T09:12:08;28.52;;;13.27;;
29812;SDS011;16707;48.106;11.548;2022-12-18T09:14:35;33.47;;;15.95;;
29812;SDS011;16707;48.106;11.548;2022-12-18T09:17:04;29.40;;;14.63;;
29812;SDS011;16707;48.106;11.548;2022-12-18T09:19:33;27.15;;;13.75;;
29812;SDS011;16707;48.106;11.548;2022-12-18T09:22:00;25.08;;;13.07;;
29812;SDS011;16707;48.106;11.548;2022-12-18T09:24:27;29.70;;;14.38;;
29812;SDS011;16707;48.106;11.548;2022-12-18T09:26:54;26.33;;;14.77;;
29812;SDS011;16707;48.106;11.548;2022-12-18T09:29:21;26.67;;;13.70;;
29812;SDS011;16707;48.106;11.548;2022-12-18T09:31:49;27.17;;;13.70;;
29812;SDS011;16707;48.106;11.548;2022-12-18T09:34:16;23.63;;;11.18;;
29812;SDS011;16707;48.106;11.548;2022-12-18T09:36:44;24.35;;;12.25;;
29812;SDS011;16707;48.106;11.548;2022-12-18T09:39:11;26.48;;;13.15;;
29812;SDS011;16707;48.106;11.548;2022-12-18T09:41:42;28.38;;;12.43;;
29812;SDS011;16707;48.106;11.548;2022-12-18T09:44:19;26.20;;;12.93;;
29812;SDS011;16707;48.106;11.548;2022-12-18T09:46:51;26.90;;;12.85;;
29812;SDS011;16707;48.106;11.548;2022-12-18T09:49:26;24.33;;;12.48;;
29812;SDS011;16707;48.106;11.548;2022-12-18T09:51:57;32.40;;;14.18;;
29812;SDS011;16707;48.106;11.548;2022-12-18T09:54:35;29.67;;;13.45;;
29812;SDS011;16707;48.106;11.548;2022-12-18T09:57:06;29.00;;;13.43;;
29812;SDS011;16707;48.106;11.548;2022-12-18T09:59:39;28.37;;;14.03;;
29812;SDS011;16707;48.106;11.548;2022-12-18T10:02:15;29.90;;;13.30;;
29812;SDS011;16707;48.106;11.548;2022-12-18T10:04:43;24.52;;;12.35;;
29812;SDS011;16707;48.106;11.548;2022-12-18T10:07:17;27.17;;;13.20;;
29812;SDS011;16707;48.106;11.548;2022-12-18T10:09:52;23.30;;;11.32;;
29812;SDS011;16707;48.106;11.548;2022-12-18T10:12:25;28.92;;;13.65;;
29812;SDS011;16707;48.106;11.548;2022-12-18T10:15:00;29.02;;;13.35;;
29812;SDS011;16707;48.106;11.548;2022-12-18T10:17:34;26.15;;;13.68;;
29812;SDS011;16707;48.106;11.548;2022-12-18T10:20:16;26.40;;;12.70;;
29812;SDS011;16707;48.106;11.548;2022-12-18T10:22:53;27.40;;;14.35;;
29812;SDS011;16707;48.106;11.548;2022-12-18T10:25:27;25.02;;;13.77;;
29812;SDS011;16707;48.106;11.548;2022-12-18T10:28:06;25.73;;;12.88;;
29812;SDS011;16707;48.106;11.548;2022-12-18T10:30:36;26.05;;;14.63;;
29812;SDS011;16707;48.106;11.548;2022-12-18T10:33:05;29.00;;;13.80;;
29812;SDS011;16707;48.106;11.548;2022-12-18T10:35:37;26.15;;;12.90;;
29812;SDS011;16707;48.106;11.548;2022-12-18T10:38:20;26.48;;;14.07;;
29812;SDS011;16707;48.106;11.548;2022-12-18T10:40:50;27.33;;;13.52;;
29812;SDS011;16707;48.106;11.548;2022-12-18T10:43:22;27.40;;;13.23;;
29812;SDS011;16707;48.106;11.548;2022-12-18T10:45:58;26.67;;;13.60;;
29812;SDS011;16707;48.106;11.548;2022-12-18T10:48:27;26.13;;;12.95;;
29812;SDS011;16707;48.106;11.548;2022-12-18T10:50:59;23.50;;;14.32;;
29812;SDS011;16707;48.106;11.548;2022-12-18T10:53:28;22.15;;;10.77;;
29812;SDS011;16707;48.106;11.548;2022-12-18T10:56:00;24.15;;;11.45;;
29812;SDS011;16707;48.106;11.548;2022-12-18T10:58:31;24.98;;;12.13;;
29812;SDS011;16707;48.106;11.548;2022-12-18T11:01:07;23.77;;;10.65;;
29812;SDS011;16707;48.106;11.548;2022-12-18T11:03:37;24.42;;;11.40;;
29812;SDS011;16707;48.106;11.548;2022-12-18T11:06:08;25.00;;;12.60;;
29812;SDS011;16707;48.106;11.548;2022-12-18T11:08:38;25.65;;;12.07;;
29812;SDS011;16707;48.106;11.548;2022-12-18T11:11:15;27.63;;;12.55;;
29812;SDS011;16707;48.106;11.548;2022-12-18T11:13:49;22.95;;;11.68;;
29812;SDS011;16707;48.106;11.548;2022-12-18T11:16:23;21.27;;;11.30;;
29812;SDS011;16707;48.106;11.548;2022-12-18T11:18:50;18.95;;;11.38;;
29812;SDS011;16707;48.106;11.548;2022-12-18T11:21:17;21.38;;;10.43;;
29812;SDS011;16707;48.106;11.548;2022-12-18T11:23:46;18.63;;;9.95;;
29812;SDS011;16707;48.106;11.548;2022-12-18T11:26:16;20.50;;;10.93;;
29812;SDS011;16707;48.106;11.548;2022-12-18T11:28:44;23.90;;;11.32;;
29812;SDS011;16707;48.106;11.548;2022-12-18T11:34:01;21.17;;;10.95;;
29812;SDS011;16707;48.106;11.548;2022-12-18T11:36:38;24.10;;;11.02;;
29812;SDS011;16707;48.106;11.548;2022-12-18T11:39:12;22.58;;;11.15;;
29812;SDS011;16707;48.106;11.548;2022-12-18T11:41:47;22.13;;;11.30;;
29812;SDS011;16707;48.106;11.548;2022-12-18T11:44:39;21.13;;;10.50;;
29812;SDS011;16707;48.106;11.548;2022-12-18T11:47:13;20.77;;;10.40;;
29812;SDS011;16707;48.106;11.548;2022-12-18T11:49:47;22.00;;;11.55;;
29812;SDS011;16707;48.106;11.548;2022-12-18T11:52:16;19.63;;;10.65;;
29812;SDS011;16707;48.106;11.548;2022-12-18T11:54:48;25.10;;;10.90;;
29812;SDS011;16707;48.106;11.548;2022-12-18T11:57:19;23.38;;;11.55;;
29812;SDS011;16707;48.106;11.548;2022-12-18T12:00:02;23.23;;;10.93;;
29812;SDS011;16707;48.106;11.548;2022-12-18T12:02:42;25.00;;;10.65;;
29812;SDS011;16707;48.106;11.548;2022-12-18T12:05:47;22.42;;;10.90;;
29812;SDS011;16707;48.106;11.548;2022-12-18T12:08:27;25.55;;;11.50;;
29812;SDS011;16707;48.106;11.548;2022-12-18T12:11:15;23.95;;;11.23;;
29812;SDS011;16707;48.106;11.548;2022-12-18T12:13:54;23.83;;;10.20;;
29812;SDS011;16707;48.106;11.548;2022-12-18T12:16:33;22.08;;;10.48;;
29812;SDS011;16707;48.106;11.548;2022-12-18T12:19:06;21.83;;;10.73;;
29812;SDS011;16707;48.106;11.548;2022-12-18T12:21:45;21.80;;;10.15;;
29812;SDS011;16707;48.106;11.548;2022-12-18T12:24:22;21.02;;;11.27;;
29812;SDS011;16707;48.106;11.548;2022-12-18T12:27:00;24.25;;;11.60;;
29812;SDS011;16707;48.106;11.548;2022-12-18T12:29:40;21.70;;;11.27;;
29812;SDS011;16707;48.106;11.548;2022-12-18T12:32:28;23.00;;;11.45;;
29812;SDS011;16707;48.106;11.548;2022-12-18T12:35:11;22.67;;;11.32;;
29812;SDS011;16707;48.106;11.548;2022-12-18T12:37:49;24.75;;;11.27;;
29812;SDS011;16707;48.106;11.548;2022-12-18T12:40:26;22.00;;;11.40;;
29812;SDS011;16707;48.106;11.548;2022-12-18T12:42:56;23.42;;;11.20;;
29812;SDS011;16707;48.106;11.548;2022-12-18T12:45:40;22.25;;;11.18;;
29812;SDS011;16707;48.106;11.548;2022-12-18T12:48:14;23.85;;;11.70;;
29812;SDS011;16707;48.106;11.548;2022-12-18T12:50:45;21.25;;;10.40;;
29812;SDS011;16707;48.106;11.548;2022-12-18T12:53:21;22.15;;;10.73;;
29812;SDS011;16707;48.106;11.548;2022-12-18T12:55:54;19.13;;;10.93;;
29812;SDS011;16707;48.106;11.548;2022-12-18T12:58:28;20.48;;;11.13;;
29812;SDS011;16707;48.106;11.548;2022-12-18T13:01:03;22.45;;;10.32;;
29812;SDS011;16707;48.106;11.548;2022-12-18T13:03:41;20.45;;;10.45;;
29812;SDS011;16707;48.106;11.548;2022-12-18T13:06:12;24.60;;;11.10;;
29812;SDS011;16707;48.106;11.548;2022-12-18T13:09:24;22.33;;;10.60;;
29812;SDS011;16707;48.106;11.548;2022-12-18T13:11:57;22.98;;;10.88;;
29812;SDS011;16707;48.106;11.548;2022-12-18T13:14:56;20.73;;;10.05;;
29812;SDS011;16707;48.106;11.548;2022-12-18T13:17:41;22.50;;;9.90;;
29812;SDS011;16707;48.106;11.548;2022-12-18T13:20:09;23.90;;;11.73;;
29812;SDS011;16707;48.106;11.548;2022-12-18T13:22:39;20.85;;;11.35;;
29812;SDS011;16707;48.106;11.548;2022-12-18T13:25:28;28.83;;;13.50;;
29812;SDS011;16707;48.106;11.548;2022-12-18T13:28:05;23.88;;;12.70;;
29812;SDS011;16707;48.106;11.548;2022-12-18T13:30:48;22.65;;;12.32;;
29812;SDS011;16707;48.106;11.548;2022-12-18T13:36:13;24.98;;;12.73;;
29812;SDS011;16707;48.106;11.548;2022-12-18T13:38:43;25.73;;;12.43;;
29812;SDS011;16707;48.106;11.548;2022-12-18T13:41:23;21.75;;;12.15;;
29812;SDS011;16707;48.106;11.548;2022-12-18T13:43:53;25.77;;;12.85;;
29812;SDS011;16707;48.106;11.548;2022-12-18T13:46:25;21.73;;;12.07;;
29812;SDS011;16707;48.106;11.548;2022-12-18T13:48:56;23.30;;;12.40;;
29812;SDS011;16707;48.106;11.548;2022-12-18T13:51:26;27.50;;;12.30;;
29812;SDS011;16707;48.106;11.548;2022-12-18T13:53:55;29.27;;;12.98;;
29812;SDS011;16707;48.106;11.548;2022-12-18T13:56:25;25.23;;;13.07;;
29812;SDS011;16707;48.106;11.548;2022-12-18T13:59:03;29.65;;;13.18;;
29812;SDS011;16707;48.106;11.548;2022-12-18T14:01:42;30.10;;;13.43;;
29812;SDS011;16707;48.106;11.548;2022-12-18T14:04:18;29.80;;;13.07;;
29812;SDS011;16707;48.106;11.548;2022-12-18T14:06:53;25.33;;;13.27;;
29812;SDS011;16707;48.106;11.548;2022-12-18T14:09:25;25.67;;;13.38;;
29812;SDS011;16707;48.106;11.548;2022-12-18T14:11:57;28.75;;;13.60;;
29812;SDS011;16707;48.106;11.548;2022-12-18T14:14:38;27.25;;;13.35;;
29812;SDS011;16707;48.106;11.548;2022-12-18T14:17:10;32.42;;;14.25;;
29812;SDS011;16707;48.106;11.548;2022-12-18T14:19:40;31.15;;;14.65;;
29812;SDS011;16707;48.106;11.548;2022-12-18T14:22:16;27.60;;;14.23;;
29812;SDS011;16707;48.106;11.548;2022-12-18T14:24:45;28.42;;;15.23;;
29812;SDS011;16707;48.106;11.548;2022-12-18T14:27:19;29.13;;;13.52;;
29812;SDS011;16707;48.106;11.548;2022-12-18T14:29:51;28.70;;;14.23;;
29812;SDS011;16707;48.106;11.548;2022-12-18T14:32:20;28.48;;;14.40;;
29812;SDS011;16707;48.106;11.548;2022-12-18T14:34:51;36.60;;;15.80;;
29812;SDS011;16707;48.106;11.548;2022-12-18T14:37:20;31.55;;;14.82;;
29812;SDS011;16707;48.106;11.548;2022-12-18T14:39:56;34.08;;;14.50;;
29812;SDS011;16707;48.106;11.548;2022-12-18T14:42:24;28.50;;;14.70;;